createdAt,value
2018-09-25T00:00:44.762Z,76.20
2018-09-25T00:03:18.916Z,76.60
2018-09-25T00:05:53.123Z,75.60
2018-09-25T00:08:27.255Z,74.70
2018-09-25T00:11:01.571Z,74.50
2018-09-25T00:13:35.857Z,73.70
2018-09-25T00:16:10.169Z,74.30
2018-09-25T00:18:44.270Z,74.80
2018-09-25T00:21:18.442Z,74.50
2018-09-25T00:23:52.570Z,74.90
2018-09-25T00:26:26.630Z,74.70
2018-09-25T00:29:00.870Z,75.40
2018-09-25T00:31:34.943Z,74.20
2018-09-25T00:34:09.034Z,75.00
2018-09-25T00:36:43.099Z,75.70
2018-09-25T00:39:17.270Z,76.40
2018-09-25T00:41:51.425Z,76.40
2018-09-25T00:44:25.685Z,76.40
2018-09-25T00:46:59.989Z,77.50
2018-09-25T00:49:34.210Z,77.20
2018-09-25T00:52:08.411Z,78.00
2018-09-25T00:54:42.451Z,78.80
2018-09-25T00:57:16.582Z,79.30
2018-09-25T00:59:50.811Z,77.50
2018-09-25T01:02:24.802Z,77.50
2018-09-25T01:04:58.872Z,79.00
2018-09-25T01:07:33.095Z,77.30
2018-09-25T01:10:07.230Z,77.40
2018-09-25T01:12:41.458Z,77.60
2018-09-25T01:15:15.870Z,77.80
2018-09-25T01:17:49.926Z,78.40
2018-09-25T01:20:24.050Z,77.40
2018-09-25T01:22:58.091Z,76.80
2018-09-25T01:25:39.829Z,77.40
2018-09-25T01:28:13.897Z,76.70
2018-09-25T01:30:48.005Z,77.50
2018-09-25T01:33:22.263Z,78.80
2018-09-25T01:35:56.324Z,78.40
2018-09-25T01:38:30.491Z,75.70
2018-09-25T01:41:04.593Z,75.80
2018-09-25T01:43:38.832Z,76.20
2018-09-25T01:46:12.893Z,75.70
2018-09-25T01:48:47.091Z,76.60
2018-09-25T01:51:21.384Z,76.80
2018-09-25T01:53:55.658Z,75.70
2018-09-25T01:56:29.790Z,74.30
2018-09-25T01:59:03.955Z,75.50
2018-09-25T02:01:38.002Z,74.20
2018-09-25T02:04:12.191Z,75.30
2018-09-25T02:06:46.310Z,75.80
2018-09-25T02:09:20.571Z,76.30
2018-09-25T02:11:54.746Z,76.20
2018-09-25T02:14:28.870Z,75.30
2018-09-25T02:17:03.116Z,76.30
2018-09-25T02:19:37.309Z,76.30
2018-09-25T02:22:11.570Z,76.20
2018-09-25T02:24:45.778Z,76.70
2018-09-25T02:27:20.036Z,76.30
2018-09-25T02:29:54.232Z,76.30
2018-09-25T02:32:28.494Z,76.60
2018-09-25T02:35:02.616Z,76.50
2018-09-25T02:37:36.810Z,76.90
2018-09-25T02:40:10.770Z,76.70
2018-09-25T02:42:44.972Z,76.80
2018-09-25T02:45:19.207Z,76.50
2018-09-25T02:47:53.451Z,76.40
2018-09-25T02:50:27.576Z,75.60
2018-09-25T02:53:01.770Z,75.70
2018-09-25T02:55:35.986Z,75.60
2018-09-25T02:58:10.840Z,76.10
2018-09-25T03:00:45.102Z,75.80
2018-09-25T03:03:19.490Z,74.60
2018-09-25T03:05:53.670Z,73.60
2018-09-25T03:08:27.902Z,73.50
2018-09-25T03:11:01.942Z,74.30
2018-09-25T03:13:36.030Z,74.60
2018-09-25T03:16:10.205Z,74.00
2018-09-25T03:18:44.262Z,74.60
2018-09-25T03:21:18.510Z,75.10
2018-09-25T03:23:52.590Z,74.80
2018-09-25T03:26:26.742Z,74.50
2018-09-25T03:29:00.911Z,75.30
2018-09-25T03:31:34.993Z,75.30
2018-09-25T03:34:09.353Z,76.20
2018-09-25T03:36:43.593Z,76.00
2018-09-25T03:39:17.841Z,76.10
2018-09-25T03:41:52.031Z,76.50
2018-09-25T03:47:11.253Z,77.10
2018-09-25T03:49:45.490Z,76.90
2018-09-25T03:52:19.631Z,76.80
2018-09-25T03:54:53.851Z,76.00
2018-09-25T03:57:28.034Z,77.00
2018-09-25T04:00:02.271Z,77.00
2018-09-25T04:02:36.371Z,77.70
2018-09-25T04:05:10.628Z,77.40
2018-09-25T04:07:44.771Z,77.00
2018-09-25T04:10:18.985Z,77.20
2018-09-25T04:12:53.125Z,77.00
2018-09-25T04:15:27.273Z,75.20
2018-09-25T04:18:01.414Z,75.70
2018-09-25T04:20:35.629Z,76.50
2018-09-25T04:23:09.868Z,76.80
2018-09-25T04:25:43.897Z,76.30
2018-09-25T04:28:18.174Z,76.90
2018-09-25T04:30:52.232Z,76.90
2018-09-25T04:33:26.339Z,77.00
2018-09-25T04:36:00.330Z,77.30
2018-09-25T04:38:34.683Z,77.90
2018-09-25T04:41:09.015Z,77.30
2018-09-25T04:43:43.191Z,77.60
2018-09-25T04:46:17.436Z,78.30
2018-09-25T04:48:51.682Z,78.60
2018-09-25T04:51:25.670Z,78.70
2018-09-25T04:53:59.990Z,79.60
2018-09-25T04:56:34.114Z,79.60
2018-09-25T04:59:08.334Z,79.50
2018-09-25T05:01:42.413Z,79.90
2018-09-25T05:04:16.466Z,79.70
2018-09-25T05:06:50.530Z,79.90
2018-09-25T05:09:24.698Z,79.50
2018-09-25T05:11:58.755Z,79.70
2018-09-25T05:14:32.835Z,79.70
2018-09-25T05:17:06.910Z,80.80
2018-09-25T05:19:41.109Z,80.40
2018-09-25T05:22:15.450Z,81.00
2018-09-25T05:24:49.534Z,80.70
2018-09-25T05:27:23.739Z,80.60
2018-09-25T05:29:57.765Z,81.30
2018-09-25T05:32:31.809Z,81.20
2018-09-25T05:35:05.931Z,81.10
2018-09-25T05:37:40.065Z,80.60
2018-09-25T05:40:14.291Z,81.00
2018-09-25T05:42:48.530Z,81.30
2018-09-25T05:45:22.744Z,81.10
2018-09-25T05:47:56.968Z,81.40
2018-09-25T05:50:31.025Z,82.10
2018-09-25T05:53:05.123Z,82.40
2018-09-25T05:55:39.439Z,82.80
2018-09-25T05:58:13.334Z,82.80
2018-09-25T06:00:47.592Z,81.80
2018-09-25T06:03:21.817Z,81.80
2018-09-25T06:05:56.065Z,82.00
2018-09-25T06:08:30.090Z,82.40
2018-09-25T06:11:04.305Z,82.50
2018-09-25T06:13:38.372Z,82.40
2018-09-25T06:16:12.658Z,82.00
2018-09-25T06:18:46.837Z,81.70
2018-09-25T06:21:20.974Z,81.90
2018-09-25T06:23:55.015Z,81.50
2018-09-25T06:26:29.188Z,81.50
2018-09-25T06:29:03.330Z,81.10
2018-09-25T06:31:37.388Z,81.60
2018-09-25T06:34:11.557Z,81.30
2018-09-25T06:36:45.710Z,80.60
2018-09-25T06:39:19.711Z,80.90
2018-09-25T06:41:54.048Z,80.00
2018-09-25T06:44:28.130Z,80.90
2018-09-25T06:47:02.324Z,81.50
2018-09-25T06:49:36.528Z,80.50
2018-09-25T06:52:10.715Z,80.60
2018-09-25T06:54:44.851Z,80.90
2018-09-25T06:57:19.026Z,79.40
2018-09-25T06:59:53.185Z,79.80
2018-09-25T07:02:27.250Z,78.30
2018-09-25T07:05:01.395Z,78.40
2018-09-25T07:07:35.540Z,76.90
2018-09-25T07:10:09.909Z,78.70
2018-09-25T07:12:43.885Z,77.40
2018-09-25T07:15:18.042Z,77.90
2018-09-25T07:17:52.350Z,77.90
2018-09-25T07:20:26.411Z,76.80
2018-09-25T07:23:00.497Z,73.30
2018-09-25T07:25:34.715Z,73.80
2018-09-25T07:28:08.750Z,71.30
2018-09-25T07:30:42.851Z,71.50
2018-09-25T07:33:17.024Z,70.80
2018-09-25T07:35:51.078Z,71.60
2018-09-25T07:38:32.728Z,70.40
2018-09-25T07:41:06.862Z,69.20
2018-09-25T07:43:41.174Z,69.00
2018-09-25T07:46:15.325Z,67.40
2018-09-25T07:48:49.462Z,67.40
2018-09-25T07:51:23.630Z,65.80
2018-09-25T07:53:57.825Z,64.40
2018-09-25T07:56:32.022Z,60.70
2018-09-25T07:59:06.286Z,60.80
2018-09-25T08:01:40.467Z,61.40
2018-09-25T08:04:14.608Z,60.70
2018-09-25T08:06:48.931Z,59.40
2018-09-25T08:09:23.098Z,58.60
2018-09-25T08:11:57.174Z,59.40
2018-09-25T08:14:31.327Z,58.90
2018-09-25T08:17:05.515Z,58.20
2018-09-25T08:19:39.550Z,58.50
2018-09-25T08:22:13.648Z,56.70
2018-09-25T08:24:50.840Z,57.60
2018-09-25T08:27:25.031Z,57.90
2018-09-25T08:29:59.191Z,56.00
2018-09-25T08:32:33.151Z,56.20
2018-09-25T08:35:07.530Z,58.10
2018-09-25T08:37:41.898Z,58.20
2018-09-25T08:40:16.024Z,58.30
2018-09-25T08:42:50.051Z,56.30
2018-09-25T08:45:24.036Z,56.90
2018-09-25T08:47:58.163Z,57.10
2018-09-25T08:50:32.391Z,57.30
2018-09-25T08:53:06.569Z,57.00
2018-09-25T08:55:40.740Z,55.40
2018-09-25T08:58:14.901Z,55.80
2018-09-25T09:00:49.185Z,54.80
2018-09-25T09:03:23.350Z,54.50
2018-09-25T09:05:57.588Z,54.70
2018-09-25T09:08:31.716Z,55.30
2018-09-25T09:11:06.761Z,55.20
2018-09-25T09:13:41.054Z,55.00
2018-09-25T09:16:15.395Z,55.50
2018-09-25T09:18:49.590Z,55.90
2018-09-25T09:21:23.905Z,58.00
2018-09-25T09:23:58.051Z,54.90
2018-09-25T09:26:32.145Z,53.70
2018-09-25T09:29:06.316Z,53.30
2018-09-25T09:31:40.465Z,53.70
2018-09-25T09:34:14.565Z,52.90
2018-09-25T09:36:48.755Z,52.50
2018-09-25T09:39:23.037Z,51.70
2018-09-25T09:41:57.424Z,52.60
2018-09-25T09:44:31.430Z,51.40
2018-09-25T09:47:05.520Z,52.60
2018-09-25T09:49:39.789Z,53.50
2018-09-25T09:52:13.997Z,52.90
2018-09-25T09:54:47.987Z,52.80
2018-09-25T09:57:31.704Z,51.30
2018-09-25T10:00:05.965Z,49.40
2018-09-25T10:02:40.165Z,50.10
2018-09-25T10:05:14.270Z,48.50
2018-09-25T10:07:48.394Z,50.50
2018-09-25T10:10:22.512Z,49.80
2018-09-25T10:12:56.717Z,47.40
2018-09-25T10:15:30.941Z,47.70
2018-09-25T10:18:05.115Z,48.60
2018-09-25T10:20:39.411Z,48.90
2018-09-25T10:23:13.610Z,48.40
2018-09-25T10:25:47.926Z,47.80
2018-09-25T10:28:21.982Z,46.30
2018-09-25T10:30:56.248Z,48.40
2018-09-25T10:33:30.370Z,50.10
2018-09-25T10:36:04.506Z,50.10
2018-09-25T10:38:38.831Z,49.30
2018-09-25T10:41:12.893Z,47.70
2018-09-25T10:43:47.674Z,45.30
2018-09-25T10:46:21.770Z,45.80
2018-09-25T10:48:55.845Z,46.50
2018-09-25T10:51:30.035Z,47.40
2018-09-25T10:54:04.134Z,45.30
2018-09-25T10:56:38.222Z,44.70
2018-09-25T10:59:12.324Z,44.50
2018-09-25T11:01:46.450Z,44.80
2018-09-25T11:04:20.605Z,43.50
2018-09-25T11:06:54.748Z,39.70
2018-09-25T11:09:29.017Z,40.60
2018-09-25T11:12:03.086Z,40.70
2018-09-25T11:14:37.271Z,40.10
2018-09-25T11:17:11.326Z,41.10
2018-09-25T11:19:45.469Z,42.80
2018-09-25T11:22:19.586Z,41.80
2018-09-25T11:24:53.767Z,43.80
2018-09-25T11:27:27.807Z,44.30
2018-09-25T11:30:01.815Z,44.60
2018-09-25T11:32:41.191Z,46.30
2018-09-25T11:35:15.360Z,47.80
2018-09-25T11:37:49.567Z,45.70
2018-09-25T11:40:23.790Z,46.20
2018-09-25T11:42:57.933Z,43.20
2018-09-25T11:45:32.025Z,42.30
2018-09-25T11:48:06.171Z,43.10
2018-09-25T11:50:40.335Z,43.90
2018-09-25T11:53:14.510Z,41.70
2018-09-25T11:55:48.668Z,41.80
2018-09-25T11:58:22.883Z,40.60
2018-09-25T12:00:57.151Z,40.10
2018-09-25T12:03:31.357Z,37.50
2018-09-25T12:06:05.457Z,37.90
2018-09-25T12:08:39.564Z,39.20
2018-09-25T12:11:13.745Z,38.20
2018-09-25T12:13:47.981Z,39.90
2018-09-25T12:16:22.270Z,37.60
2018-09-25T12:18:58.543Z,39.00
2018-09-25T12:21:32.812Z,39.50
2018-09-25T12:24:07.070Z,39.80
2018-09-25T12:26:41.229Z,40.10
2018-09-25T12:29:15.550Z,38.90
2018-09-25T12:31:49.740Z,39.60
2018-09-25T12:34:23.730Z,37.30
2018-09-25T12:36:57.896Z,39.00
2018-09-25T12:39:32.030Z,38.60
2018-09-25T12:42:06.211Z,39.10
2018-09-25T12:44:40.360Z,38.80
2018-09-25T12:47:14.542Z,37.50
2018-09-25T12:49:48.742Z,35.20
2018-09-25T12:52:22.897Z,36.10
2018-09-25T12:54:57.030Z,35.40
2018-09-25T12:57:31.215Z,36.00
2018-09-25T13:00:05.426Z,38.10
2018-09-25T13:02:39.610Z,36.70
2018-09-25T13:05:13.680Z,36.30
2018-09-25T13:07:47.909Z,35.90
2018-09-25T13:10:22.033Z,36.10
2018-09-25T13:12:56.190Z,39.60
2018-09-25T13:15:30.290Z,38.00
2018-09-25T13:18:04.483Z,39.30
2018-09-25T13:20:38.608Z,39.20
2018-09-25T13:23:12.736Z,39.40
2018-09-25T13:25:47.013Z,41.10
2018-09-25T13:28:21.128Z,41.60
2018-09-25T13:30:55.250Z,41.50
2018-09-25T13:33:29.393Z,42.10
2018-09-25T13:36:03.453Z,42.10
2018-09-25T13:38:37.670Z,38.30
2018-09-25T13:41:11.875Z,37.00
2018-09-25T13:43:46.150Z,34.50
2018-09-25T13:46:20.346Z,32.50
2018-09-25T13:48:54.504Z,30.50
2018-09-25T13:51:34.471Z,31.70
2018-09-25T13:54:08.417Z,33.50
2018-09-25T13:56:42.412Z,35.60
2018-09-25T13:59:16.608Z,35.90
2018-09-25T14:01:50.762Z,35.70
2018-09-25T14:04:24.852Z,37.30
2018-09-25T14:06:59.132Z,37.40
2018-09-25T14:09:33.188Z,37.40
2018-09-25T14:12:07.422Z,38.60
2018-09-25T14:14:41.654Z,37.60
2018-09-25T14:17:15.904Z,39.40
2018-09-25T14:19:50.051Z,39.90
2018-09-25T14:22:24.259Z,38.80
2018-09-25T14:24:58.384Z,39.30
2018-09-25T14:27:32.708Z,38.90
2018-09-25T14:30:06.756Z,38.30
2018-09-25T14:32:40.749Z,39.20
2018-09-25T14:35:14.787Z,39.30
2018-09-25T14:37:48.842Z,40.20
2018-09-25T14:40:22.954Z,41.80
2018-09-25T14:42:56.975Z,40.80
2018-09-25T14:45:31.171Z,42.60
2018-09-25T14:48:05.291Z,42.00
2018-09-25T14:50:39.473Z,42.10
2018-09-25T14:53:13.689Z,42.50
2018-09-25T14:55:47.774Z,43.40
2018-09-25T14:58:21.892Z,43.40
2018-09-25T15:00:56.083Z,43.00
2018-09-25T15:03:30.369Z,43.10
2018-09-25T15:06:04.571Z,42.80
2018-09-25T15:08:39.007Z,42.80
2018-09-25T15:11:13.130Z,43.30
2018-09-25T15:13:47.309Z,43.60
2018-09-25T15:16:21.466Z,44.00
2018-09-25T15:18:55.767Z,44.50
2018-09-25T15:21:30.074Z,45.70
2018-09-25T15:24:04.288Z,45.70
2018-09-25T15:26:38.481Z,45.50
2018-09-25T15:29:12.606Z,46.30
2018-09-25T15:31:46.673Z,47.60
2018-09-25T15:34:20.683Z,47.30
2018-09-25T15:36:54.883Z,48.30
2018-09-25T15:39:28.884Z,49.00
2018-09-25T15:42:03.025Z,50.30
2018-09-25T15:44:37.342Z,50.10
2018-09-25T15:47:11.502Z,50.70
2018-09-25T15:49:45.726Z,51.10
2018-09-25T15:52:19.831Z,51.00
2018-09-25T15:54:54.054Z,51.10
2018-09-25T15:57:28.251Z,51.40
2018-09-25T16:00:02.417Z,52.70
2018-09-25T16:02:36.637Z,52.60
2018-09-25T16:05:10.895Z,53.20
2018-09-25T16:07:45.051Z,53.70
2018-09-25T16:10:19.300Z,54.40
2018-09-25T16:12:53.450Z,54.40
2018-09-25T16:15:27.680Z,55.00
2018-09-25T16:18:01.710Z,55.50
2018-09-25T16:20:35.785Z,55.10
2018-09-25T16:23:09.872Z,55.50
2018-09-25T16:25:44.070Z,55.70
2018-09-25T16:28:18.193Z,55.90
2018-09-25T16:30:59.339Z,57.30
2018-09-25T16:33:33.510Z,56.70
2018-09-25T16:36:07.625Z,57.10
2018-09-25T16:38:41.748Z,57.60
2018-09-25T16:41:15.792Z,58.30
2018-09-25T16:43:49.885Z,58.50
2018-09-25T16:46:24.110Z,59.10
2018-09-25T16:48:58.153Z,59.40
2018-09-25T16:51:32.172Z,59.60
2018-09-25T16:54:06.302Z,60.20
2018-09-25T16:56:40.467Z,61.20
2018-09-25T16:59:14.702Z,62.90
2018-09-25T17:01:48.768Z,62.80
2018-09-25T17:04:22.894Z,63.40
2018-09-25T17:06:57.025Z,65.60
2018-09-25T17:09:31.271Z,66.70
2018-09-25T17:12:05.422Z,67.80
2018-09-25T17:14:39.663Z,68.30
2018-09-25T17:17:13.775Z,70.20
2018-09-25T17:19:47.811Z,71.30
2018-09-25T17:22:22.050Z,72.40
2018-09-25T17:24:56.154Z,73.40
2018-09-25T17:27:30.350Z,74.60
2018-09-25T17:30:04.710Z,75.80
2018-09-25T17:32:38.689Z,76.60
2018-09-25T17:35:12.774Z,77.20
2018-09-25T17:37:46.870Z,78.10
2018-09-25T17:40:21.166Z,78.90
2018-09-25T17:42:55.230Z,79.50
2018-09-25T17:45:29.364Z,79.70
2018-09-25T17:48:03.573Z,80.40
2018-09-25T17:50:37.674Z,80.40
2018-09-25T17:53:11.896Z,81.00
2018-09-25T17:55:46.122Z,81.50
2018-09-25T17:58:20.295Z,82.50
2018-09-25T18:00:54.521Z,82.70
2018-09-25T18:03:28.579Z,83.10
2018-09-25T18:06:02.696Z,83.10
2018-09-25T18:08:36.825Z,83.60
2018-09-25T18:11:11.213Z,83.80
2018-09-25T18:13:45.367Z,84.20
2018-09-25T18:16:19.713Z,84.10
2018-09-25T18:18:53.936Z,84.30
2018-09-25T18:21:28.013Z,84.60
2018-09-25T18:24:02.247Z,84.50
2018-09-25T18:26:36.466Z,84.70
2018-09-25T18:29:10.807Z,84.80
2018-09-25T18:31:45.178Z,85.10
2018-09-25T18:34:19.587Z,85.40
2018-09-25T18:36:53.988Z,85.40
2018-09-25T18:39:28.510Z,85.80
2018-09-25T18:42:02.948Z,85.80
2018-09-25T18:44:37.402Z,85.70
2018-09-25T18:47:12.168Z,85.80
2018-09-25T18:49:46.429Z,85.80
2018-09-25T18:52:20.840Z,85.60
2018-09-25T18:54:55.174Z,85.90
2018-09-25T18:57:29.694Z,86.20
2018-09-25T19:00:04.037Z,86.00
2018-09-25T19:02:38.511Z,86.50
2018-09-25T19:05:13.522Z,86.90
2018-09-25T19:07:47.889Z,87.10
2018-09-25T19:10:22.410Z,87.50
2018-09-25T19:12:56.990Z,87.90
2018-09-25T19:15:31.954Z,87.90
2018-09-25T19:18:06.209Z,87.90
2018-09-25T19:20:40.831Z,88.00
2018-09-25T19:23:15.088Z,87.90
2018-09-25T19:25:49.454Z,88.30
2018-09-25T19:28:23.756Z,88.20
2018-09-25T19:30:58.274Z,88.20
2018-09-25T19:33:32.675Z,88.40
2018-09-25T19:36:07.111Z,88.60
2018-09-25T19:38:41.450Z,88.80
2018-09-25T19:41:15.979Z,89.10
2018-09-25T19:43:50.410Z,89.10
2018-09-25T19:46:24.890Z,90.00
2018-09-25T19:48:59.330Z,89.70
2018-09-25T19:51:33.713Z,89.80
2018-09-25T19:54:08.313Z,89.80
2018-09-25T19:56:42.670Z,90.00
2018-09-25T19:59:17.124Z,90.10
2018-09-25T20:01:51.605Z,90.20
2018-09-25T20:04:26.242Z,90.30
2018-09-25T20:07:00.765Z,90.30
2018-09-25T20:09:35.136Z,90.20
2018-09-25T20:12:09.526Z,90.20
2018-09-25T20:14:44.170Z,90.40
2018-09-25T20:17:18.600Z,90.60
2018-09-25T20:19:53.884Z,90.60
2018-09-25T20:22:28.228Z,90.80
2018-09-25T20:25:02.756Z,90.70
2018-09-25T20:27:37.073Z,90.60
2018-09-25T20:30:11.566Z,90.60
2018-09-25T20:32:46.105Z,90.70
2018-09-25T20:35:20.565Z,90.60
2018-09-25T20:37:55.121Z,90.70
2018-09-25T20:40:29.517Z,90.80
2018-09-25T20:43:03.839Z,90.90
2018-09-25T20:45:38.158Z,91.00
2018-09-25T20:48:12.137Z,91.10
2018-09-25T20:50:46.323Z,91.10
2018-09-25T20:53:20.425Z,91.20
2018-09-25T20:55:54.630Z,91.30
2018-09-25T20:58:28.722Z,91.30
2018-09-25T21:01:02.727Z,91.40
2018-09-25T21:03:37.205Z,91.40
2018-09-25T21:06:11.687Z,91.40
2018-09-25T21:08:45.921Z,91.40
2018-09-25T21:11:20.065Z,91.50
2018-09-25T21:13:54.285Z,91.60
2018-09-25T21:16:28.575Z,91.60
2018-09-25T21:19:02.734Z,91.60
2018-09-25T21:21:36.909Z,91.70
2018-09-25T21:24:10.950Z,91.70
2018-09-25T21:26:45.109Z,91.90
2018-09-25T21:29:19.245Z,91.90
2018-09-25T21:31:53.442Z,92.00
2018-09-25T21:34:27.592Z,92.10
2018-09-25T21:37:01.787Z,92.10
2018-09-25T21:39:35.890Z,92.00
2018-09-25T21:42:10.137Z,92.00
2018-09-25T21:44:44.385Z,91.90
2018-09-25T21:47:18.455Z,92.00
2018-09-25T21:49:52.467Z,92.00
2018-09-25T21:52:26.614Z,92.10
2018-09-25T21:55:00.690Z,92.10
2018-09-25T21:57:34.880Z,92.30
2018-09-25T22:00:08.947Z,92.40
2018-09-25T22:02:43.002Z,92.40
2018-09-25T22:05:17.102Z,92.40
2018-09-25T22:07:51.250Z,92.40
2018-09-25T22:10:25.254Z,92.50
2018-09-25T22:12:59.365Z,92.60
2018-09-25T22:15:33.574Z,92.60
2018-09-25T22:18:07.750Z,92.70
2018-09-25T22:20:41.786Z,92.60
2018-09-25T22:23:15.893Z,92.70
2018-09-25T22:25:50.070Z,92.70
2018-09-25T22:28:24.257Z,92.70
2018-09-25T22:30:58.575Z,92.80
2018-09-25T22:33:32.750Z,92.80
2018-09-25T22:36:07.131Z,92.70
2018-09-25T22:38:41.289Z,92.60
2018-09-25T22:41:15.258Z,92.80
2018-09-25T22:43:49.504Z,92.80
2018-09-25T22:46:23.712Z,92.80
2018-09-25T22:48:58.036Z,92.80
2018-09-25T22:51:32.244Z,92.70
2018-09-25T22:54:06.238Z,92.80
2018-09-25T22:56:40.269Z,92.90
2018-09-25T22:59:14.593Z,92.90
2018-09-25T23:01:48.650Z,93.10
2018-09-25T23:04:22.725Z,93.30
2018-09-25T23:06:56.865Z,93.30
2018-09-25T23:09:31.111Z,93.20
2018-09-25T23:12:05.173Z,93.30
2018-09-25T23:14:39.330Z,93.10
2018-09-25T23:17:13.617Z,93.10
2018-09-25T23:19:47.789Z,93.10
2018-09-25T23:22:22.066Z,93.10
2018-09-25T23:24:56.118Z,93.00
2018-09-25T23:27:30.254Z,93.00
2018-09-25T23:30:04.357Z,92.90
2018-09-25T23:32:38.529Z,93.10
2018-09-25T23:35:12.645Z,93.20
2018-09-25T23:37:47.063Z,93.20
2018-09-25T23:40:22.088Z,93.30
2018-09-25T23:42:59.370Z,93.30
2018-09-25T23:55:34.245Z,93.20
2018-09-25T23:59:05.950Z,93.20
